This is the latest recevied weather packets stored in our database for station/object K0BL. If no packets are shown the sender has not sent any weather packets the latest 10 day(s).
| Time | Temp. | Humidity | Pressure | Rain* | Wind** | Luminosity | Snow |
|---|---|---|---|---|---|---|---|
| 1777860192 | 15° C | 64% | 1005.3 hPa | 0 mm | - | 0 W/m² | - |
| 1777859292 | 15.56° C | 66% | 1005.3 hPa | 0 mm | - | 0 W/m² | - |
| 1777856880 | 19.44° C | 47% | 1005.1 hPa | 0 mm | - | 4 W/m² | - |
| 1777856280 | 20.56° C | 43% | 1005.1 hPa | 0 mm | - | 9 W/m² | - |
| 1777854478 | 21.67° C | 39% | 1005.2 hPa | 0 mm | - | 36 W/m² | - |
| 1777852678 | 22.78° C | 37% | 1005.1 hPa | 0 mm | - | 109 W/m² | - |
| 1777852078 | 22.78° C | 37% | 1005.1 hPa | 0 mm | - | 80 W/m² | - |
| 1777850878 | 23.33° C | 34% | 1005.1 hPa | 0 mm | - | 100 W/m² | - |
| 1777850579 | 23.33° C | 34% | 1005.1 hPa | 0 mm | - | 129 W/m² | - |
| 1777849980 | 23.33° C | 34% | 1005.1 hPa | 0 mm | - | 182 W/m² | - |
| 1777848773 | 23.33° C | 35% | 1005.1 hPa | 0 mm | - | 156 W/m² | - |
| 1777844568 | 22.78° C | 39% | 1005.3 hPa | 0 mm | - | 151 W/m² | - |
| 1777841269 | 22.22° C | 42% | 1005.8 hPa | 0 mm | - | 296 W/m² | - |
| 1777839764 | 21.67° C | 44% | 1006 hPa | 0 mm | - | 280 W/m² | - |
| 1777832852 | 18.89° C | 52% | 1006.2 hPa | 0 mm | - | 204 W/m² | - |
| 1777831950 | 18.33° C | 52% | 1007.4 hPa | 0 mm | - | 185 W/m² | - |
| 1777830447 | 18.33° C | 51% | 1007 hPa | 0 mm | - | 157 W/m² | - |
| 1777830147 | 18.89° C | 51% | 1007.4 hPa | 0 mm | - | 154 W/m² | - |
| 1777829247 | 18.89° C | 50% | 1007.2 hPa | 0 mm | - | 513 W/m² | - |
| 1777827742 | 18.33° C | 50% | 1007.5 hPa | 0 mm | - | 520 W/m² | - |
| 1777825943 | 17.78° C | 51% | 1007.8 hPa | 0 mm | - | 738 W/m² | - |
| 1777821737 | 16.67° C | 50% | 1008 hPa | 0 mm | - | 426 W/m² | - |
| 1777813018 | 11.67° C | 60% | 1010 hPa | 0 mm | - | 158 W/m² | - |
| 1777807014 | 10.56° C | 59% | 1010.2 hPa | 0 mm | - | 2 W/m² | - |
| 1777806108 | 10.56° C | 59% | 1010.3 hPa | 0 mm | - | 0 W/m² | - |
* Rain latest hour (hover to see other rain measurements)
** Current wind speed in m/s (hover to see current wind gust speed)